createdAt,value
2016-12-21T00:00:23.819Z,49.96
2016-12-21T00:01:33.116Z,50.05
2016-12-21T00:02:42.121Z,50.15
2016-12-21T00:03:51.123Z,50.05
2016-12-21T00:05:00.121Z,50.34
2016-12-21T00:06:09.562Z,50.15
2016-12-21T00:07:18.252Z,50.05
2016-12-21T00:08:27.860Z,50.25
2016-12-21T00:09:36.535Z,50.25
2016-12-21T00:10:45.823Z,50.05
2016-12-21T00:11:55.711Z,50.15
2016-12-21T00:13:04.699Z,50.15
2016-12-21T00:14:13.680Z,50.25
2016-12-21T00:15:22.993Z,50.15
2016-12-21T00:16:31.675Z,49.87
2016-12-21T00:17:40.516Z,49.96
2016-12-21T00:18:49.796Z,50.15
2016-12-21T00:19:58.785Z,50.15
2016-12-21T00:21:08.747Z,50.05
2016-12-21T00:22:17.424Z,50.15
2016-12-21T00:23:26.115Z,50.15
2016-12-21T00:24:35.106Z,50.05
2016-12-21T00:25:44.414Z,50.05
2016-12-21T00:26:53.700Z,50.05
2016-12-21T00:28:02.673Z,50.15
2016-12-21T00:29:11.693Z,50.05
2016-12-21T00:30:21.345Z,50.15
2016-12-21T00:31:30.648Z,49.96
2016-12-21T00:32:40.234Z,50.15
2016-12-21T00:33:48.966Z,50.05
2016-12-21T00:34:57.740Z,50.05
2016-12-21T00:36:06.736Z,50.05
2016-12-21T00:37:15.714Z,50.15
2016-12-21T00:38:25.004Z,50.25
2016-12-21T00:39:33.989Z,50.05
2016-12-21T00:40:43.291Z,50.15
2016-12-21T00:41:51.974Z,50.25
2016-12-21T00:43:00.971Z,50.05
2016-12-21T00:44:09.967Z,50.15
2016-12-21T00:45:18.679Z,50.15
2016-12-21T00:46:28.460Z,50.15
2016-12-21T00:47:37.443Z,50.15
2016-12-21T00:48:46.133Z,50.15
2016-12-21T00:49:55.446Z,50.05
2016-12-21T00:51:04.122Z,50.05
2016-12-21T00:52:13.730Z,50.15
2016-12-21T00:53:23.041Z,50.15
2016-12-21T00:54:31.737Z,50.05
2016-12-21T00:55:40.512Z,50.05
2016-12-21T00:56:49.182Z,50.05
2016-12-21T00:57:57.862Z,50.15
2016-12-21T00:59:06.901Z,50.15
2016-12-21T01:00:15.881Z,50.15
2016-12-21T01:01:25.184Z,50.05
2016-12-21T01:02:34.503Z,50.44
2016-12-21T01:03:43.799Z,50.44
2016-12-21T01:04:53.403Z,50.34
2016-12-21T01:06:02.087Z,50.34
2016-12-21T01:07:11.087Z,50.44
2016-12-21T01:08:20.102Z,50.34
2016-12-21T01:09:29.118Z,49.96
2016-12-21T01:10:38.133Z,50.44
2016-12-21T01:11:47.167Z,50.15
2016-12-21T01:12:56.764Z,50.44
2016-12-21T01:14:06.064Z,50.34
2016-12-21T01:15:15.211Z,50.34
2016-12-21T01:16:24.843Z,50.25
2016-12-21T01:17:33.856Z,49.77
2016-12-21T01:18:42.539Z,50.25
2016-12-21T01:19:51.524Z,49.87
2016-12-21T01:21:00.808Z,50.44
2016-12-21T01:22:09.538Z,49.87
2016-12-21T01:23:19.471Z,50.34
2016-12-21T01:24:28.788Z,50.25
2016-12-21T01:25:37.778Z,50.25
2016-12-21T01:26:47.387Z,50.34
2016-12-21T01:27:56.411Z,49.96
2016-12-21T01:29:05.101Z,50.05
2016-12-21T01:30:13.794Z,49.87
2016-12-21T01:31:23.099Z,50.05
2016-12-21T01:32:32.135Z,50.44
2016-12-21T01:33:41.763Z,50.34
2016-12-21T01:34:50.474Z,50.34
2016-12-21T01:35:59.208Z,50.44
2016-12-21T01:37:08.192Z,50.34
2016-12-21T01:38:17.174Z,50.34
2016-12-21T01:39:26.481Z,49.96
2016-12-21T01:40:36.718Z,50.44
2016-12-21T01:41:45.397Z,49.96
2016-12-21T01:42:54.688Z,50.34
2016-12-21T01:44:04.076Z,50.34
2016-12-21T01:45:12.744Z,50.34
2016-12-21T01:46:21.788Z,50.34
2016-12-21T01:47:31.462Z,50.44
2016-12-21T01:48:40.454Z,50.34
2016-12-21T01:49:49.883Z,50.44
2016-12-21T01:50:59.182Z,50.54
2016-12-21T01:52:08.166Z,50.63
2016-12-21T01:53:16.868Z,50.73
2016-12-21T01:54:26.159Z,50.63
2016-12-21T01:55:35.597Z,50.25
2016-12-21T01:56:44.282Z,50.73
2016-12-21T01:57:52.955Z,50.44
2016-12-21T01:59:01.944Z,50.34
2016-12-21T02:00:10.644Z,50.34
2016-12-21T02:01:19.636Z,50.34
2016-12-21T02:02:28.627Z,50.44
2016-12-21T02:03:37.917Z,50.54
2016-12-21T02:04:46.590Z,50.15
2016-12-21T02:05:55.579Z,50.25
2016-12-21T02:07:04.709Z,50.63
2016-12-21T02:08:13.994Z,50.63
2016-12-21T02:09:23.300Z,50.54
2016-12-21T02:10:32.314Z,50.25
2016-12-21T02:11:41.299Z,50.15
2016-12-21T02:12:50.015Z,50.34
2016-12-21T02:13:59.000Z,50.25
2016-12-21T02:15:08.596Z,50.73
2016-12-21T02:16:17.892Z,50.25
2016-12-21T02:17:27.486Z,50.54
2016-12-21T02:18:36.172Z,50.15
2016-12-21T02:19:44.846Z,50.44
2016-12-21T02:20:53.822Z,50.34
2016-12-21T02:22:02.811Z,50.25
2016-12-21T02:23:11.499Z,50.25
2016-12-21T02:24:21.136Z,50.73
2016-12-21T02:25:30.444Z,50.63
2016-12-21T02:26:39.115Z,50.25
2016-12-21T02:27:48.099Z,50.54
2016-12-21T02:28:57.403Z,50.34
2016-12-21T02:30:06.692Z,50.32
2016-12-21T02:31:15.969Z,50.34
2016-12-21T02:32:25.569Z,50.34
2016-12-21T02:33:34.862Z,50.25
2016-12-21T02:34:43.585Z,50.54
2016-12-21T02:35:53.022Z,50.25
2016-12-21T02:37:01.714Z,50.25
2016-12-21T02:38:10.409Z,50.7
2016-12-21T02:39:19.428Z,50.7
2016-12-21T02:40:28.733Z,50.34
2016-12-21T02:41:38.671Z,50.25
2016-12-21T02:42:47.656Z,50.32
2016-12-21T02:43:56.635Z,50.34
2016-12-21T02:45:05.307Z,50.32
2016-12-21T02:46:14.315Z,50.42
2016-12-21T02:47:23.672Z,50.54
2016-12-21T02:48:32.657Z,49.77
2016-12-21T02:49:41.640Z,50.05
2016-12-21T02:50:50.628Z,50.13
2016-12-21T02:51:59.613Z,50.34
2016-12-21T02:53:08.913Z,50.34
2016-12-21T02:54:18.219Z,50.13
2016-12-21T02:55:26.906Z,50.44
2016-12-21T02:56:36.201Z,50.32
2016-12-21T02:57:45.522Z,50.34
2016-12-21T02:58:54.505Z,50.32
2016-12-21T03:00:04.102Z,49.96
2016-12-21T03:01:12.851Z,50.34
2016-12-21T03:02:21.541Z,50.34
2016-12-21T03:03:30.515Z,50.44
2016-12-21T03:04:39.505Z,50.32
2016-12-21T03:05:48.830Z,49.87
2016-12-21T03:06:57.825Z,50.34
2016-12-21T03:08:07.114Z,50.25
2016-12-21T03:09:15.822Z,50.25
2016-12-21T03:10:25.107Z,49.96
2016-12-21T03:11:34.453Z,50.25
2016-12-21T03:12:44.064Z,50.23
2016-12-21T03:13:53.055Z,50.05
2016-12-21T03:15:02.353Z,50.15
2016-12-21T03:16:11.804Z,50.05
2016-12-21T03:17:20.478Z,50.03
2016-12-21T03:18:29.460Z,49.96
2016-12-21T03:19:38.453Z,50.15
2016-12-21T03:20:47.443Z,50.05
2016-12-21T03:21:56.851Z,50.15
2016-12-21T03:23:06.152Z,50.15
2016-12-21T03:24:15.143Z,50.15
2016-12-21T03:25:23.844Z,50.05
2016-12-21T03:26:32.818Z,50.05
2016-12-21T03:27:41.962Z,50.03
2016-12-21T03:28:50.645Z,50.15
2016-12-21T03:29:59.635Z,50.05
2016-12-21T03:31:08.329Z,50.03
2016-12-21T03:32:17.356Z,50.13
2016-12-21T03:33:26.382Z,50.13
2016-12-21T03:34:35.676Z,50.15
2016-12-21T03:35:44.657Z,50.15
2016-12-21T03:36:53.343Z,50.25
2016-12-21T03:38:02.644Z,50.03
2016-12-21T03:39:11.808Z,50.03
2016-12-21T03:40:20.793Z,49.93
2016-12-21T03:41:29.796Z,50.05
2016-12-21T03:42:38.799Z,50.13
2016-12-21T03:43:48.094Z,50.05
2016-12-21T03:44:57.416Z,50.03
2016-12-21T03:46:06.420Z,50.03
2016-12-21T03:47:16.042Z,50.03
2016-12-21T03:48:25.039Z,50.03
2016-12-21T03:49:34.055Z,50.03
2016-12-21T03:50:43.041Z,50.03
2016-12-21T03:51:52.032Z,50.03
2016-12-21T03:53:01.325Z,50.03
2016-12-21T03:54:10.353Z,50.03
2016-12-21T03:55:19.651Z,50.13
2016-12-21T03:56:28.951Z,49.93
2016-12-21T03:57:37.640Z,49.93
2016-12-21T03:58:46.629Z,50.03
2016-12-21T03:59:55.608Z,50.13
2016-12-21T04:01:04.285Z,50.13
2016-12-21T04:02:13.320Z,50.03
2016-12-21T04:03:22.922Z,49.93
2016-12-21T04:04:31.592Z,50.03
2016-12-21T04:05:40.879Z,50.03
2016-12-21T04:06:49.873Z,50.03
2016-12-21T04:07:59.000Z,49.93
2016-12-21T04:09:07.986Z,50.03
2016-12-21T04:10:17.275Z,49.84
2016-12-21T04:11:26.267Z,50.15
2016-12-21T04:12:35.585Z,49.93
2016-12-21T04:13:44.569Z,49.93
2016-12-21T04:14:53.861Z,50.13
2016-12-21T04:16:02.843Z,50.03
2016-12-21T04:17:11.530Z,50.13
2016-12-21T04:18:20.521Z,50.13
2016-12-21T04:19:29.206Z,49.93
2016-12-21T04:20:37.896Z,50.13
2016-12-21T04:21:46.910Z,50.13
2016-12-21T04:22:56.513Z,50.13
2016-12-21T04:24:05.814Z,50.13
2016-12-21T04:25:15.517Z,50.13
2016-12-21T04:26:24.798Z,50.13
2016-12-21T04:27:33.790Z,50.13
2016-12-21T04:28:42.782Z,50.03
2016-12-21T04:29:52.071Z,49.93
2016-12-21T04:31:01.110Z,49.93
2016-12-21T04:32:10.114Z,50.13
2016-12-21T04:33:19.105Z,50.03
2016-12-21T04:34:28.104Z,50.13
2016-12-21T04:35:36.802Z,50.13
2016-12-21T04:36:45.490Z,50.13
2016-12-21T04:37:54.485Z,50.13
2016-12-21T04:39:03.475Z,50.13
2016-12-21T04:40:12.766Z,50.13
2016-12-21T04:41:21.461Z,50.23
2016-12-21T04:42:31.475Z,50.03
2016-12-21T04:43:40.795Z,50.13
2016-12-21T04:44:49.787Z,49.93
2016-12-21T04:45:58.483Z,50.23
2016-12-21T04:47:07.167Z,50.13
2016-12-21T04:48:16.488Z,50.13
2016-12-21T04:49:25.788Z,50.03
2016-12-21T04:50:35.019Z,50.03
2016-12-21T04:51:44.315Z,50.13
2016-12-21T04:52:53.000Z,49.93
2016-12-21T04:54:01.836Z,50.03
2016-12-21T04:55:10.850Z,50.23
2016-12-21T04:56:20.468Z,50.13
2016-12-21T04:57:29.492Z,50.03
2016-12-21T04:58:38.784Z,49.93
2016-12-21T04:59:47.813Z,49.93
2016-12-21T05:00:56.810Z,49.93
2016-12-21T05:02:06.092Z,50.03
2016-12-21T05:03:15.387Z,49.93
2016-12-21T05:04:24.077Z,50.32
2016-12-21T05:05:33.071Z,50.03
2016-12-21T05:06:41.765Z,50.23
2016-12-21T05:07:50.763Z,50.03
2016-12-21T05:08:59.786Z,50.32
2016-12-21T05:10:08.488Z,49.93
2016-12-21T05:11:17.635Z,50.23
2016-12-21T05:12:26.622Z,50.32
2016-12-21T05:13:35.915Z,50.13
2016-12-21T05:14:44.612Z,50.13
2016-12-21T05:15:53.618Z,50.13
2016-12-21T05:17:02.624Z,50.13
2016-12-21T05:18:11.306Z,49.93
2016-12-21T05:19:20.925Z,50.23
2016-12-21T05:20:29.909Z,50.51
2016-12-21T05:21:38.900Z,50.03
2016-12-21T05:22:48.274Z,50.32
2016-12-21T05:23:57.297Z,50.13
2016-12-21T05:25:06.590Z,49.84
2016-12-21T05:26:15.581Z,50.13
2016-12-21T05:27:24.291Z,50.42
2016-12-21T05:28:33.783Z,50.51
2016-12-21T05:29:42.460Z,50.13
2016-12-21T05:30:51.205Z,50.23
2016-12-21T05:32:00.047Z,50.42
2016-12-21T05:33:09.908Z,50.13
2016-12-21T05:34:18.607Z,50.32
2016-12-21T05:35:27.927Z,50.23
2016-12-21T05:36:37.543Z,50.32
2016-12-21T05:37:46.228Z,49.74
2016-12-21T05:38:54.933Z,49.84
2016-12-21T05:40:03.643Z,49.84
2016-12-21T05:41:12.638Z,49.87
2016-12-21T05:42:22.233Z,49.48
2016-12-21T05:43:31.226Z,49.29
2016-12-21T05:44:40.211Z,49.38
2016-12-21T05:45:48.914Z,49.1
2016-12-21T05:46:57.917Z,48.71
2016-12-21T05:48:07.523Z,48.64
2016-12-21T05:49:17.122Z,48.74
2016-12-21T05:50:27.032Z,48.74
2016-12-21T05:51:36.330Z,48.35
2016-12-21T05:52:45.952Z,48.25
2016-12-21T05:53:55.267Z,48.54
2016-12-21T05:55:03.976Z,48.35
2016-12-21T05:56:13.294Z,48.25
2016-12-21T05:57:21.984Z,48.08
2016-12-21T05:58:31.276Z,48.25
2016-12-21T05:59:41.102Z,47.41
2016-12-21T06:00:50.398Z,47.41
2016-12-21T06:01:59.383Z,47.31
2016-12-21T06:03:08.385Z,47.13
2016-12-21T06:04:17.386Z,46.93
2016-12-21T06:05:26.388Z,47.13
2016-12-21T06:06:35.109Z,46.93
2016-12-21T06:07:43.799Z,47.05
2016-12-21T06:08:52.822Z,46.95
2016-12-21T06:10:01.822Z,47.05
2016-12-21T06:11:10.822Z,46.95
2016-12-21T06:12:19.545Z,47.34
2016-12-21T06:13:28.235Z,46.67
2016-12-21T06:14:37.837Z,46.67
2016-12-21T06:15:46.528Z,46.38
2016-12-21T06:16:55.211Z,46.28
2016-12-21T06:18:04.810Z,46.28
2016-12-21T06:19:13.497Z,46.57
2016-12-21T06:20:22.206Z,46.47
2016-12-21T06:21:30.886Z,46.19
2016-12-21T06:22:40.502Z,46.11
2016-12-21T06:23:49.840Z,46.11
2016-12-21T06:24:59.446Z,46.21
2016-12-21T06:26:09.125Z,46.01
2016-12-21T06:27:18.447Z,46.4
2016-12-21T06:28:27.146Z,46.21
2016-12-21T06:29:35.858Z,46.11
2016-12-21T06:30:45.146Z,45.83
2016-12-21T06:31:54.158Z,46.01
2016-12-21T06:33:03.171Z,45.63
2016-12-21T06:34:12.465Z,45.63
2016-12-21T06:35:21.483Z,45.92
2016-12-21T06:36:30.863Z,45.92
2016-12-21T06:37:39.574Z,45.92
2016-12-21T06:38:48.887Z,45.94
2016-12-21T06:39:58.192Z,45.84
2016-12-21T06:41:07.792Z,45.75
2016-12-21T06:42:16.801Z,45.53
2016-12-21T06:43:25.956Z,45.46
2016-12-21T06:44:35.008Z,45.46
2016-12-21T06:45:43.686Z,45.27
2016-12-21T06:46:52.702Z,45.56
2016-12-21T06:48:01.699Z,45.65
2016-12-21T06:49:11.477Z,45.56
2016-12-21T06:50:20.165Z,45.46
2016-12-21T06:51:29.499Z,45.56
2016-12-21T06:52:38.536Z,45.56
2016-12-21T06:53:47.219Z,45.46
2016-12-21T06:54:56.555Z,45.65
2016-12-21T06:56:05.238Z,45.36
2016-12-21T06:57:14.534Z,45.46
2016-12-21T06:58:23.566Z,45.75
2016-12-21T06:59:32.566Z,45.75
2016-12-21T07:00:42.271Z,45.84
2016-12-21T07:01:50.957Z,45.77
2016-12-21T07:02:59.634Z,45.77
2016-12-21T07:04:08.618Z,45.68
2016-12-21T07:05:17.610Z,45.97
2016-12-21T07:06:26.738Z,45.48
2016-12-21T07:07:35.767Z,45.97
2016-12-21T07:08:44.753Z,45.87
2016-12-21T07:09:53.756Z,45.87
2016-12-21T07:11:02.431Z,45.39
2016-12-21T07:12:11.416Z,45.87
2016-12-21T07:13:20.723Z,45.87
2016-12-21T07:14:30.013Z,45.58
2016-12-21T07:15:39.305Z,45.39
2016-12-21T07:16:47.980Z,45.97
2016-12-21T07:17:57.288Z,45.48
2016-12-21T07:19:06.274Z,45.97
2016-12-21T07:20:15.581Z,45.48
2016-12-21T07:21:25.714Z,45.48
2016-12-21T07:22:34.694Z,45.97
2016-12-21T07:23:43.673Z,45.87
2016-12-21T07:24:52.669Z,45.39
2016-12-21T07:26:01.699Z,45.48
2016-12-21T07:27:11.320Z,45.97
2016-12-21T07:28:20.315Z,45.48
2016-12-21T07:29:29.909Z,45.2
2016-12-21T07:30:39.196Z,45.29
2016-12-21T07:31:48.499Z,45.39
2016-12-21T07:32:57.507Z,45.2
2016-12-21T07:34:06.830Z,45.2
2016-12-21T07:35:15.514Z,45.41
2016-12-21T07:36:24.826Z,45.31
2016-12-21T07:37:33.825Z,45.21
2016-12-21T07:38:43.103Z,45.21
2016-12-21T07:39:51.782Z,45.7
2016-12-21T07:41:00.617Z,45.31
2016-12-21T07:42:09.903Z,45.21
2016-12-21T07:43:19.190Z,45.21
2016-12-21T07:44:29.396Z,45.03
2016-12-21T07:45:38.078Z,45.03
2016-12-21T07:46:47.065Z,45.03
2016-12-21T07:47:56.053Z,45.12
2016-12-21T07:49:05.336Z,45.03
2016-12-21T07:50:14.621Z,45.21
2016-12-21T07:51:23.295Z,44.73
2016-12-21T07:52:32.441Z,44.93
2016-12-21T07:53:41.746Z,44.83
2016-12-21T07:54:51.058Z,44.83
2016-12-21T07:55:59.739Z,44.93
2016-12-21T07:57:08.430Z,44.73
2016-12-21T07:58:17.561Z,44.83
2016-12-21T07:59:26.544Z,44.93
2016-12-21T08:00:36.487Z,44.85
2016-12-21T08:01:45.500Z,44.95
2016-12-21T08:02:54.491Z,44.95
2016-12-21T08:04:03.956Z,44.95
2016-12-21T08:05:12.701Z,44.85
2016-12-21T08:06:21.691Z,44.95
2016-12-21T08:07:31.288Z,44.76
2016-12-21T08:08:41.188Z,44.83
2016-12-21T08:09:50.393Z,45.14
2016-12-21T08:10:59.405Z,45.24
2016-12-21T08:12:08.423Z,45.03
2016-12-21T08:13:17.728Z,45.21
2016-12-21T08:14:27.009Z,45.6
2016-12-21T08:15:36.378Z,45.41
2016-12-21T08:16:45.384Z,45.31
2016-12-21T08:17:54.056Z,45.51
2016-12-21T08:19:03.041Z,45.89
2016-12-21T08:20:12.326Z,45.79
2016-12-21T08:21:21.103Z,45.6
2016-12-21T08:22:30.096Z,45.31
2016-12-21T08:23:39.096Z,45.51
2016-12-21T08:24:48.383Z,45.31
2016-12-21T08:25:57.674Z,45.51
2016-12-21T08:27:07.012Z,45.89
2016-12-21T08:28:15.703Z,45.99
2016-12-21T08:29:25.011Z,45.99
2016-12-21T08:30:34.004Z,45.89
2016-12-21T08:31:43.622Z,45.99
2016-12-21T08:32:53.264Z,45.87
2016-12-21T08:34:02.555Z,46.06
2016-12-21T08:35:11.240Z,46.45
2016-12-21T08:36:20.229Z,46.35
2016-12-21T08:37:28.931Z,46.35
2016-12-21T08:38:38.995Z,46.55
2016-12-21T08:39:47.980Z,46.35
2016-12-21T08:40:58.196Z,46.55
2016-12-21T08:42:07.494Z,46.64
2016-12-21T08:43:16.491Z,46.55
2016-12-21T08:44:25.642Z,46.64
2016-12-21T08:45:34.941Z,46.25
2016-12-21T08:46:43.974Z,46.73
2016-12-21T08:47:53.589Z,47.31
2016-12-21T08:49:02.581Z,47.03
2016-12-21T08:50:11.420Z,47.19
2016-12-21T08:51:21.032Z,47.19
2016-12-21T08:52:30.331Z,46.91
2016-12-21T08:53:39.013Z,47.29
2016-12-21T08:54:47.726Z,47.29
2016-12-21T08:55:56.566Z,47.29
2016-12-21T08:57:05.571Z,46.91
2016-12-21T08:58:14.872Z,47.39
2016-12-21T08:59:23.591Z,47.19
2016-12-21T09:00:32.276Z,47.49
2016-12-21T09:01:41.424Z,47.39
2016-12-21T09:02:51.063Z,47.29
2016-12-21T09:04:00.064Z,47.39
2016-12-21T09:05:08.754Z,47.29
2016-12-21T09:06:17.439Z,47.58
2016-12-21T09:07:26.221Z,47.58
2016-12-21T09:08:35.835Z,47.58
2016-12-21T09:09:45.145Z,47.49
2016-12-21T09:10:54.441Z,47.65
2016-12-21T09:12:03.436Z,47.65
2016-12-21T09:13:12.430Z,47.46
2016-12-21T09:14:21.828Z,47.56
2016-12-21T09:15:31.122Z,47.65
2016-12-21T09:16:40.422Z,47.65
2016-12-21T09:17:49.430Z,47.85
2016-12-21T09:18:58.419Z,48.33
2016-12-21T09:20:07.409Z,48.23
2016-12-21T09:21:16.396Z,47.94
2016-12-21T09:22:25.999Z,48.03
2016-12-21T09:23:35.006Z,48.13
2016-12-21T09:24:44.317Z,48.33
2016-12-21T09:25:53.605Z,48.03
2016-12-21T09:27:03.201Z,47.94
2016-12-21T09:28:11.902Z,47.94
2016-12-21T09:29:20.602Z,48.23
2016-12-21T09:30:30.055Z,48.33
2016-12-21T09:31:39.059Z,48.23
2016-12-21T09:32:48.055Z,48.33
2016-12-21T09:33:57.046Z,48.23
2016-12-21T09:35:06.062Z,48.43
2016-12-21T09:36:15.059Z,48.43
2016-12-21T09:37:23.752Z,48.49
2016-12-21T09:38:32.466Z,48.33
2016-12-21T09:39:41.758Z,48.11
2016-12-21T09:40:51.056Z,48.33
2016-12-21T09:42:00.069Z,48.13
2016-12-21T09:43:09.064Z,48.3
2016-12-21T09:44:18.059Z,48.61
2016-12-21T09:45:27.355Z,48.49
2016-12-21T09:46:36.650Z,48.49
2016-12-21T09:47:45.794Z,48.59
2016-12-21T09:49:26.568Z,48.4
2016-12-21T09:50:35.879Z,48.59
2016-12-21T09:51:45.491Z,48.49
2016-12-21T09:52:54.480Z,48.59
2016-12-21T09:54:03.469Z,48.59
2016-12-21T09:55:12.447Z,48.21
2016-12-21T09:56:21.121Z,48.3
2016-12-21T09:57:29.798Z,48.3
2016-12-21T09:58:38.781Z,48.4
2016-12-21T09:59:47.779Z,48.3
2016-12-21T10:00:56.486Z,48.3
2016-12-21T10:02:05.467Z,48.4
2016-12-21T10:03:14.450Z,48.4
2016-12-21T10:04:23.439Z,48.4
2016-12-21T10:05:32.114Z,48.4
2016-12-21T10:06:40.790Z,48.4
2016-12-21T10:07:49.467Z,48.3
2016-12-21T10:08:58.144Z,48.3
2016-12-21T10:10:06.880Z,48.4
2016-12-21T10:11:16.183Z,48.3
2016-12-21T10:12:25.185Z,48.49
2016-12-21T10:13:34.792Z,48.4
2016-12-21T10:14:43.773Z,48.4
2016-12-21T10:15:53.219Z,48.3
2016-12-21T10:17:02.203Z,48.21
2016-12-21T10:18:11.199Z,48.4
2016-12-21T10:19:20.191Z,48.21
2016-12-21T10:20:29.487Z,48.4
2016-12-21T10:21:38.177Z,48.3
2016-12-21T10:22:46.869Z,48.4
2016-12-21T10:23:55.885Z,48.3
2016-12-21T10:25:05.181Z,48.4
2016-12-21T10:26:14.460Z,48.3
2016-12-21T10:27:23.441Z,48.4
2016-12-21T10:28:32.433Z,48.3
2016-12-21T10:29:41.121Z,48.4
2016-12-21T10:30:50.423Z,48.21
2016-12-21T10:31:59.108Z,48.3
2016-12-21T10:33:08.709Z,48.4
2016-12-21T10:34:17.690Z,48.59
2016-12-21T10:35:26.396Z,48.4
2016-12-21T10:36:35.989Z,48.4
2016-12-21T10:37:44.973Z,48.3
2016-12-21T10:38:53.969Z,48.3
2016-12-21T10:40:02.975Z,48.4
2016-12-21T10:41:12.285Z,48.4
2016-12-21T10:42:21.267Z,48.3
2016-12-21T10:43:30.244Z,48.3
2016-12-21T10:44:38.928Z,48.3
2016-12-21T10:45:47.915Z,48.4
2016-12-21T10:46:56.894Z,48.3
2016-12-21T10:48:06.188Z,48.3
2016-12-21T10:49:14.900Z,48.3
2016-12-21T10:50:23.903Z,48.49
2016-12-21T10:51:33.199Z,48.4
2016-12-21T10:52:42.199Z,48.4
2016-12-21T10:53:50.899Z,48.3
2016-12-21T10:55:00.186Z,48.3
2016-12-21T10:56:09.182Z,48.3
2016-12-21T10:57:17.867Z,48.38
2016-12-21T10:58:26.866Z,48.3
2016-12-21T10:59:36.163Z,48.3
2016-12-21T11:00:45.166Z,48.3
2016-12-21T11:01:54.162Z,48.28
2016-12-21T11:03:03.144Z,48.4
2016-12-21T11:04:12.440Z,48.38
2016-12-21T11:05:21.418Z,48.28
2016-12-21T11:06:30.717Z,48.28
2016-12-21T11:07:39.691Z,48.28
2016-12-21T11:08:48.980Z,48.28
2016-12-21T11:09:58.571Z,48.4
2016-12-21T11:11:07.262Z,48.3
2016-12-21T11:12:16.554Z,48.4
2016-12-21T11:13:25.237Z,48.38
2016-12-21T11:14:34.231Z,48.38
2016-12-21T11:15:42.915Z,48.47
2016-12-21T11:16:51.611Z,48.49
2016-12-21T11:18:01.217Z,48.4
2016-12-21T11:19:10.223Z,48.38
2016-12-21T11:20:18.912Z,48.38
2016-12-21T11:21:28.212Z,48.47
2016-12-21T11:22:37.217Z,48.49
2016-12-21T11:23:46.215Z,48.47
2016-12-21T11:24:55.206Z,48.38
2016-12-21T11:26:04.542Z,48.28
2016-12-21T11:27:13.279Z,48.28
2016-12-21T11:28:22.585Z,48.38
2016-12-21T11:29:32.491Z,48.38
2016-12-21T11:30:42.402Z,48.38
2016-12-21T11:31:51.396Z,48.38
2016-12-21T11:33:00.080Z,48.57
2016-12-21T11:34:08.777Z,48.38
2016-12-21T11:35:17.460Z,48.38
2016-12-21T11:36:26.465Z,48.28
2016-12-21T11:37:35.761Z,48.57
2016-12-21T11:38:45.369Z,48.38
2016-12-21T11:39:54.668Z,48.38
2016-12-21T11:41:03.683Z,48.28
2016-12-21T11:42:12.704Z,48.38
2016-12-21T11:43:21.407Z,48.47
2016-12-21T11:44:30.714Z,48.47
2016-12-21T11:45:39.384Z,48.28
2016-12-21T11:46:48.684Z,48.47
2016-12-21T11:47:57.975Z,48.28
2016-12-21T11:49:07.277Z,48.38
2016-12-21T11:50:16.264Z,48.38
2016-12-21T11:51:25.251Z,48.38
2016-12-21T11:52:34.549Z,48.28
2016-12-21T11:53:44.169Z,48.38
2016-12-21T11:54:53.168Z,48.47
2016-12-21T11:56:02.163Z,48.38
2016-12-21T11:57:11.167Z,48.28
2016-12-21T11:58:20.158Z,48.18
2016-12-21T11:59:29.158Z,48.18
2016-12-21T12:00:37.853Z,48.47
2016-12-21T12:01:47.157Z,48.38
2016-12-21T12:02:56.146Z,48.18
2016-12-21T12:04:05.129Z,48.28
2016-12-21T12:05:14.428Z,48.28
2016-12-21T12:06:23.409Z,48.38
2016-12-21T12:07:32.390Z,48.28
2016-12-21T12:08:41.985Z,48.38
2016-12-21T12:09:51.279Z,48.38
2016-12-21T12:11:00.267Z,48.38
2016-12-21T12:12:09.258Z,48.28
2016-12-21T12:13:18.561Z,48.57
2016-12-21T12:14:27.862Z,48.47
2016-12-21T12:15:36.544Z,48.38
2016-12-21T12:16:45.697Z,48.38
2016-12-21T12:17:54.380Z,48.18
2016-12-21T12:19:03.062Z,48.47
2016-12-21T12:20:12.046Z,48.47
2016-12-21T12:21:21.033Z,48.57
2016-12-21T12:22:30.316Z,48.08
2016-12-21T12:23:39.318Z,48.57
2016-12-21T12:24:48.303Z,48.57
2016-12-21T12:25:57.300Z,48.38
2016-12-21T12:27:06.926Z,48.38
2016-12-21T12:28:16.226Z,48.38
2016-12-21T12:29:24.926Z,48.47
2016-12-21T12:30:33.608Z,48.47
2016-12-21T12:31:42.294Z,48.38
2016-12-21T12:32:51.896Z,48.28
2016-12-21T12:34:00.924Z,48.28
2016-12-21T12:35:10.217Z,48.28
2016-12-21T12:36:19.197Z,48.47
2016-12-21T12:37:27.879Z,48.38
2016-12-21T12:38:36.566Z,48.28
2016-12-21T12:39:45.860Z,48.38
2016-12-21T12:40:54.860Z,48.38
2016-12-21T12:42:04.158Z,48.28
2016-12-21T12:43:13.142Z,48.38
2016-12-21T12:44:21.833Z,48.28
2016-12-21T12:45:30.822Z,48.38
2016-12-21T12:46:39.852Z,48.28
2016-12-21T12:47:48.843Z,48.38
2016-12-21T12:48:57.549Z,48.38
2016-12-21T12:50:06.296Z,48.47
2016-12-21T12:51:15.895Z,48.28
2016-12-21T12:52:24.885Z,48.47
2016-12-21T12:53:34.230Z,48.28
2016-12-21T12:54:43.227Z,48.47
2016-12-21T12:55:51.914Z,48.66
2016-12-21T12:57:01.531Z,48.57
2016-12-21T12:58:10.209Z,48.57
2016-12-21T12:59:19.189Z,48.38
2016-12-21T13:00:27.879Z,48.66
2016-12-21T13:01:36.879Z,48.57
2016-12-21T13:02:45.569Z,48.57
2016-12-21T13:03:54.863Z,48.66
2016-12-21T13:05:04.174Z,48.66
2016-12-21T13:06:12.859Z,48.57
2016-12-21T13:07:22.164Z,48.47
2016-12-21T13:08:30.855Z,48.66
2016-12-21T13:09:39.870Z,48.76
2016-12-21T13:10:49.473Z,48.76
2016-12-21T13:11:58.479Z,48.57
2016-12-21T13:13:07.786Z,48.47
2016-12-21T13:14:16.472Z,48.76
2016-12-21T13:15:25.759Z,48.76
2016-12-21T13:16:34.771Z,48.76
2016-12-21T13:17:44.357Z,48.47
2016-12-21T13:18:53.043Z,48.57
2016-12-21T13:20:01.727Z,48.76
2016-12-21T13:21:11.404Z,48.57
2016-12-21T13:22:21.020Z,48.85
2016-12-21T13:23:30.005Z,48.47
2016-12-21T13:24:38.985Z,48.57
2016-12-21T13:25:48.581Z,48.76
2016-12-21T13:26:57.583Z,48.38
2016-12-21T13:28:06.276Z,48.76
2016-12-21T13:29:15.578Z,48.85
2016-12-21T13:30:24.564Z,48.57
2016-12-21T13:31:33.239Z,48.57
2016-12-21T13:32:41.935Z,48.66
2016-12-21T13:33:51.231Z,48.57
2016-12-21T13:34:59.912Z,48.95
2016-12-21T13:36:09.211Z,48.66
2016-12-21T13:37:18.200Z,48.57
2016-12-21T13:38:27.521Z,48.28
2016-12-21T13:39:36.516Z,48.28
2016-12-21T13:40:45.815Z,48.28
2016-12-21T13:41:54.810Z,48.28
2016-12-21T13:43:03.506Z,48.38
2016-12-21T13:44:12.829Z,48.38
2016-12-21T13:45:21.823Z,49.15
2016-12-21T13:46:30.535Z,48.38
2016-12-21T13:47:39.216Z,49.05
2016-12-21T13:48:48.819Z,48.38
2016-12-21T13:49:58.110Z,48.57
2016-12-21T13:51:06.797Z,49.24
2016-12-21T13:52:16.388Z,48.38
2016-12-21T13:53:25.677Z,48.28
2016-12-21T13:54:35.488Z,48.66
2016-12-21T13:55:44.813Z,48.57
2016-12-21T13:56:53.817Z,48.38
2016-12-21T13:58:02.502Z,48.54
2016-12-21T13:59:11.190Z,48.76
2016-12-21T14:00:20.489Z,48.66
2016-12-21T14:01:29.485Z,48.66
2016-12-21T14:02:39.083Z,48.66
2016-12-21T14:03:48.100Z,48.76
2016-12-21T14:04:57.080Z,48.66
2016-12-21T14:06:05.750Z,48.76
2016-12-21T14:07:15.045Z,48.74
2016-12-21T14:08:23.728Z,48.64
2016-12-21T14:09:32.425Z,48.83
2016-12-21T14:10:41.102Z,48.76
2016-12-21T14:11:50.087Z,48.76
2016-12-21T14:12:59.070Z,48.85
2016-12-21T14:14:08.373Z,48.74
2016-12-21T14:15:17.394Z,48.64
2016-12-21T14:16:26.079Z,48.47
2016-12-21T14:17:35.126Z,48.64
2016-12-21T14:18:44.405Z,48.76
2016-12-21T14:19:53.392Z,48.74
2016-12-21T14:21:02.676Z,48.64
2016-12-21T14:22:11.392Z,48.83
2016-12-21T14:23:20.702Z,48.95
2016-12-21T14:24:29.401Z,48.83
2016-12-21T14:25:38.077Z,48.66
2016-12-21T14:26:47.372Z,48.74
2016-12-21T14:27:56.670Z,48.83
2016-12-21T14:29:05.351Z,48.66
2016-12-21T14:30:14.648Z,48.74
2016-12-21T14:31:23.329Z,48.76
2016-12-21T14:32:32.637Z,48.76
2016-12-21T14:33:41.929Z,48.95
2016-12-21T14:34:50.918Z,48.45
2016-12-21T14:36:00.215Z,48.47
2016-12-21T14:37:08.902Z,49.02
2016-12-21T14:38:17.890Z,49.02
2016-12-21T14:39:26.880Z,48.95
2016-12-21T14:40:36.493Z,48.93
2016-12-21T14:41:45.483Z,48.83
2016-12-21T14:42:54.501Z,48.95
2016-12-21T14:44:03.184Z,48.93
2016-12-21T14:45:12.174Z,48.83
2016-12-21T14:46:21.229Z,48.93
2016-12-21T14:47:29.912Z,49.02
2016-12-21T14:48:39.210Z,49.02
2016-12-21T14:49:48.200Z,49.05
2016-12-21T14:50:57.822Z,49.22
2016-12-21T14:52:06.506Z,49.02